createdAt,value
2018-12-22T00:14:42.678Z,1.13
2018-12-22T00:35:22.162Z,1.03
2018-12-22T00:56:01.215Z,1.30
2018-12-22T01:16:41.613Z,1.33
2018-12-22T01:37:17.700Z,1.27
2018-12-22T02:15:55.047Z,1.20
2018-12-22T02:36:33.911Z,1.30
2018-12-22T02:57:13.584Z,1.00
2018-12-22T03:17:48.758Z,1.00
2018-12-22T03:38:28.082Z,1.00
2018-12-22T04:17:09.059Z,1.37
2018-12-22T04:37:48.940Z,0.87
2018-12-22T04:58:27.590Z,1.00
2018-12-22T05:19:07.885Z,1.37
2018-12-22T05:39:46.121Z,1.17
2018-12-22T06:18:26.954Z,1.30
2018-12-22T06:39:05.402Z,0.97
2018-12-22T06:59:44.676Z,1.13
2018-12-22T07:20:22.908Z,1.23
2018-12-22T07:41:04.018Z,0.90
2018-12-22T08:19:42.172Z,1.40
2018-12-22T09:01:09.525Z,1.87
2018-12-22T09:21:52.697Z,1.47
2018-12-22T10:00:31.060Z,1.80
2018-12-22T10:42:03.516Z,1.83
2018-12-22T11:02:46.138Z,1.30
2018-12-22T11:41:26.688Z,1.00
2018-12-22T12:02:09.682Z,0.73
2018-12-22T12:22:46.448Z,1.27
2018-12-22T12:43:28.789Z,1.20
2018-12-22T13:04:08.153Z,1.30
2018-12-22T13:42:51.959Z,1.37
2018-12-22T14:03:40.440Z,1.50
2018-12-22T14:24:30.561Z,1.03
2018-12-22T14:45:15.231Z,1.60
2018-12-22T15:05:53.190Z,1.33
2018-12-22T15:44:34.483Z,1.37
2018-12-22T16:05:16.359Z,1.70
2018-12-22T16:25:55.010Z,2.20
2018-12-22T16:46:36.120Z,2.57
2018-12-22T17:07:15.591Z,3.13
2018-12-22T17:45:57.245Z,2.50
2018-12-22T18:06:37.533Z,2.90
2018-12-22T18:27:15.780Z,1.60
2018-12-22T18:47:56.076Z,3.60
2018-12-22T19:08:35.539Z,2.50
2018-12-22T19:47:18.422Z,2.57
2018-12-22T20:07:57.891Z,3.17
2018-12-22T20:28:37.232Z,1.50
2018-12-22T20:49:17.243Z,2.30
2018-12-22T21:09:58.798Z,2.10
2018-12-22T21:48:40.414Z,2.90
2018-12-22T22:09:19.342Z,2.70
2018-12-22T22:48:13.840Z,2.23
2018-12-22T23:08:56.165Z,2.60
2018-12-22T23:29:37.685Z,2.50
2018-12-22T23:50:18.040Z,2.33
